SKCC/CUC METAR and TAF weather

Enter ICAO airport designator
Station Type Date Time Source
SKCC METAR 2019/12/13 03:00 UTC NOAA

SKCC 130300Z VRB02KT 9999 FEW023 SCT080 25/22 A2994


Station Type Date Time Source
SKCC Decoded METAR 2019/12/13 03:00 UTC NOAA

Cucuta / Camilo Daza, Colombia (SKCC) 07-56N 072-31W 317M
Dec 12, 2019 - 10:00 PM EST / 2019.12.13 0300 UTC
Wind: Variable at 2 MPH (2 KT):0
Visibility: greater than 7 mile(s):0
Sky conditions: partly cloudy
Temperature: 77 F (25 C)
Dew Point: 71 F (22 C)
Relative Humidity: 83%
Pressure (altimeter): 29.94 in. Hg (1013 hPa)
ob: SKCC 130300Z VRB02KT 9999 FEW023 SCT080 25/22 A2994
cycle: 3

Station Type Date Time Source
SKCC TAF 2019/12/12 18:48 UTC NOAA

TAF SKCC 121630Z 1218/1318 10004KT 8000 SCT015 SCT080
BECMG 1219/1221 35010KT SCT017TCU
TEMPO 1309/1312 5000 DZ BR SCT015 BKN080 TX31/1218Z TN23/1311Z

Example: see airport list